MV Causeway Supplier — ZR2426 — position and weather

sailwx.info

Track history (hours):
 
Tides and Currents Weather Stations Pressure Air Temp Water Temp Dewpoint Dewpoint Depression Visibility Wind Speed Wind Dir Waves Ship Positions

MV Causeway Supplier

Last reported at 2015-Mar-30 22:30 UTC. Time now 2015-Mar-30 22:59 UTC.
Position S 29°52' E 031°01'.

Length 22 m; draft 2.7 m.

Type: . MMSI: 601041200.

Date/timePositionNaut miles runAvg speedWind from/ knotsBaromVisibWave heightAir tempDewpointWater temp
2015-Mar-30 22:30S 29°52' E 031°01'0 0.0
2015-Mar-30 21:33S 29°52' E 031°01'0 0.0
2015-Mar-30 19:18S 29°52' E 031°01'0 0.0
2015-Mar-30 16:24S 29°52' E 031°01'0 0.0
2015-Mar-30 15:12S 29°52' E 031°01'2 0.7
2015-Mar-30 12:19S 29°52' E 031°03'5 7.1
2015-Mar-30 11:33S 29°53' E 031°09'3 2.7
2015-Mar-30 10:33S 29°52' E 031°06'5 4.1
2015-Mar-30 09:24S 29°52' E 031°01'0 0.0
2015-Mar-30 05:12S 29°52' E 031°01'0 0.0
2015-Mar-30 04:33S 29°52' E 031°01'0 0.0
2015-Mar-30 01:32S 29°52' E 031°01'0 0.0
2015-Mar-29 22:32S 29°52' E 031°01'0 0.0
2015-Mar-29 21:33S 29°52' E 031°01'0 0.0
2015-Mar-29 20:33S 29°52' E 031°01'0 0.0
2015-Mar-29 19:33S 29°52' E 031°01'0 0.0
2015-Mar-29 18:23S 29°52' E 031°01'0 0.0
2015-Mar-29 17:32S 29°52' E 031°01'0 0.0
2015-Mar-29 16:33S 29°52' E 031°01'0 0.0
2015-Mar-29 15:22S 29°52' E 031°01'1 1.0
2015-Mar-29 14:33S 29°52' E 031°02'4 4.0
2015-Mar-29 13:33S 29°56' E 031°03'2 2.1
2015-Mar-29 12:24S 29°58' E 031°04'1 1.6
2015-Mar-29 11:33S 29°57' E 031°05'1 1.4
2015-Mar-29 10:32S 29°56' E 031°06'2 1.9
2015-Mar-29 09:33S 29°54' E 031°07'3 3.0
2015-Mar-29 08:33S 29°51' E 031°07'5 5.3
2015-Mar-29 07:34S 29°52' E 031°01'0 0.2
2015-Mar-29 06:33S 29°52' E 031°01'0 0.0
2015-Mar-29 05:33S 29°52' E 031°01'0 0.0
2015-Mar-29 04:33S 29°52' E 031°01'0 0.0
2015-Mar-29 03:33S 29°52' E 031°01'0 0.0
2015-Mar-29 02:33S 29°52' E 031°01'0 0.0
2015-Mar-29 01:33S 29°52' E 031°01'0 0.0
2015-Mar-29 00:32S 29°52' E 031°01'0 0.0
2015-Mar-28 23:33S 29°52' E 031°01'0 0.0
2015-Mar-28 22:33S 29°52' E 031°01'0 0.0
2015-Mar-28 21:33S 29°52' E 031°01'0 0.0
2015-Mar-28 20:33S 29°52' E 031°01'0 0.0
2015-Mar-28 19:31S 29°52' E 031°01'0 0.0
2015-Mar-28 18:15S 29°52' E 031°01'0 0.0
2015-Mar-28 17:28S 29°52' E 031°01'0 0.5
2015-Mar-28 16:33S 29°52' E 031°01'8 8.1
2015-Mar-28 15:33S 29°56' E 031°10'6 6.1
2015-Mar-28 14:33S 29°59' E 031°15'3 2.8
2015-Mar-28 13:34S 29°57' E 031°14'3 3.4
2015-Mar-28 12:33S 29°54' E 031°13'4 3.5
2015-Mar-28 11:34S 29°51' E 031°10'1 0.9
2015-Mar-28 10:33S 29°51' E 031°09'4 4.4
2015-Mar-28 09:33S 29°52' E 031°04'2 1.6
2015-Mar-28 08:07S 29°52' E 031°01'0 0.0
2015-Mar-28 07:24S 29°52' E 031°01'0 0.0
2015-Mar-27 12:16S 29°52' E 031°01'0 0.0
2015-Mar-27 11:32S 29°52' E 031°01'0 0.0
2015-Mar-27 10:04S 29°52' E 031°01'2 4.6
2015-Mar-27 09:33S 29°52' E 031°04'4 4.2
2015-Mar-27 08:34S 29°55' E 031°07'2 2.0
2015-Mar-27 07:34S 29°53' E 031°06'5 5.1
2015-Mar-27 06:34S 29°54' E 031°00'0 0.0
2015-Mar-27 05:31S 29°54' E 031°00'0 0.0
2015-Mar-25 18:33S 29°54' E 031°00'2 0.2
2015-Mar-25 11:22S 29°52' E 031°01'2 2.5
2015-Mar-25 10:33S 29°54' E 031°00'0 0.0
2015-Mar-25 09:33S 29°54' E 031°00'0 0.0
2015-Mar-25 08:33S 29°54' E 031°00'0 0.0
2015-Mar-25 07:32S 29°54' E 031°00'0 0.0
2015-Mar-25 06:33S 29°54' E 031°00'0 0.0
2015-Mar-25 04:34S 29°54' E 031°00'0 0.0
2015-Mar-24 13:33S 29°54' E 031°00'7 7.3
2015-Mar-24 12:34S 29°49' E 031°07'3 3.2
2015-Mar-24 11:34S 29°47' E 031°10'0 0.1
2015-Mar-24 10:34S 29°47' E 031°10'0 0.1
2015-Mar-24 09:34S 29°47' E 031°10'7 7.5
2015-Mar-24 08:33S 29°52' E 031°03'3 3.1
2015-Mar-24 07:34S 29°54' E 031°00'0 0.0
2015-Mar-24 06:34S 29°54' E 031°00'0 0.0
2015-Mar-24 05:31S 29°54' E 031°00'0 0.0
2015-Mar-24 04:32S 29°54' E 031°00'0 0.0
2015-Mar-23 10:23S 29°54' E 031°00'4 4.9
2015-Mar-23 09:34S 29°52' E 031°04'4 1.2
2015-Mar-23 06:17S 29°54' E 031°00'0 0.0
2015-Mar-23 05:33S 29°54' E 031°00'2 0.1
2015-Mar-22 07:34S 29°52' E 031°02'7 7.2
2015-Mar-22 06:34S 29°52' E 031°10'0 0.2
2015-Mar-22 05:34S 29°52' E 031°10'5 5.2
2015-Mar-22 04:34S 29°52' E 031°04'4 4.0
2015-Mar-22 03:34S 29°54' E 031°00'0 0.0
2015-Mar-22 02:34S 29°54' E 031°00'0 0.0
2015-Mar-22 01:33S 29°54' E 031°00'0 0.0
2015-Mar-21 23:16S 29°54' E 031°00'0 0.0
2015-Mar-21 21:34S 29°54' E 031°00'0 0.0
2015-Mar-21 20:34S 29°54' E 031°00'0 0.0
2015-Mar-21 19:34S 29°54' E 031°00'0 0.0
2015-Mar-21 18:34S 29°54' E 031°00'0 0.0
2015-Mar-21 17:28S 29°54' E 031°00'0 0.0
2015-Mar-21 16:33S 29°54' E 031°00'0 0.0
2015-Mar-21 15:33S 29°54' E 031°00'0 0.0
2015-Mar-21 14:33S 29°54' E 031°00'0 0.0
2015-Mar-21 12:06S 29°54' E 031°00'0 0.0
2015-Mar-21 11:34S 29°54' E 031°00'0 0.0
2015-Mar-21 10:33S 29°54' E 031°00'0 0.0
2015-Mar-21 09:34S 29°54' E 031°00'0 0.0
2015-Mar-21 08:34S 29°54' E 031°00'0 0.0
2015-Mar-21 07:33S 29°54' E 031°00'0 0.0
2015-Mar-21 06:33S 29°54' E 031°00'0 0.0
2015-Mar-21 05:32S 29°54' E 031°00'  
Track history (hours):
 
Tides and Currents Weather Stations Pressure Air Temp Water Temp Dewpoint Dewpoint Depression Visibility Wind Speed Wind Dir Waves Ship Positions

MV Causeway Supplier

Last reported at 2015-Mar-30 22:30 UTC. Time now 2015-Mar-30 22:59 UTC.
Position S 29°52' E 031°01'.

Length 22 m; draft 2.7 m.

Type: . MMSI: 601041200.

Date/timePositionNaut miles runAvg speedWind from/ knotsBaromVisibWave heightAir tempDewpointWater temp
2015-Mar-30 22:30S 29°52' E 031°01'0 0.0
2015-Mar-30 21:33S 29°52' E 031°01'0 0.0
2015-Mar-30 19:18S 29°52' E 031°01'0 0.0
2015-Mar-30 16:24S 29°52' E 031°01'0 0.0
2015-Mar-30 15:12S 29°52' E 031°01'2 0.7
2015-Mar-30 12:19S 29°52' E 031°03'5 7.1
2015-Mar-30 11:33S 29°53' E 031°09'3 2.7
2015-Mar-30 10:33S 29°52' E 031°06'5 4.1
2015-Mar-30 09:24S 29°52' E 031°01'0 0.0
2015-Mar-30 05:12S 29°52' E 031°01'0 0.0
2015-Mar-30 04:33S 29°52' E 031°01'0 0.0
2015-Mar-30 01:32S 29°52' E 031°01'0 0.0
2015-Mar-29 22:32S 29°52' E 031°01'0 0.0
2015-Mar-29 21:33S 29°52' E 031°01'0 0.0
2015-Mar-29 20:33S 29°52' E 031°01'0 0.0
2015-Mar-29 19:33S 29°52' E 031°01'0 0.0
2015-Mar-29 18:23S 29°52' E 031°01'0 0.0
2015-Mar-29 17:32S 29°52' E 031°01'0 0.0
2015-Mar-29 16:33S 29°52' E 031°01'0 0.0
2015-Mar-29 15:22S 29°52' E 031°01'1 1.0
2015-Mar-29 14:33S 29°52' E 031°02'4 4.0
2015-Mar-29 13:33S 29°56' E 031°03'2 2.1
2015-Mar-29 12:24S 29°58' E 031°04'1 1.6
2015-Mar-29 11:33S 29°57' E 031°05'1 1.4
2015-Mar-29 10:32S 29°56' E 031°06'2 1.9
2015-Mar-29 09:33S 29°54' E 031°07'3 3.0
2015-Mar-29 08:33S 29°51' E 031°07'5 5.3
2015-Mar-29 07:34S 29°52' E 031°01'0 0.2
2015-Mar-29 06:33S 29°52' E 031°01'0 0.0
2015-Mar-29 05:33S 29°52' E 031°01'0 0.0
2015-Mar-29 04:33S 29°52' E 031°01'0 0.0
2015-Mar-29 03:33S 29°52' E 031°01'0 0.0
2015-Mar-29 02:33S 29°52' E 031°01'0 0.0
2015-Mar-29 01:33S 29°52' E 031°01'0 0.0
2015-Mar-29 00:32S 29°52' E 031°01'0 0.0
2015-Mar-28 23:33S 29°52' E 031°01'0 0.0
2015-Mar-28 22:33S 29°52' E 031°01'0 0.0
2015-Mar-28 21:33S 29°52' E 031°01'0 0.0
2015-Mar-28 20:33S 29°52' E 031°01'0 0.0
2015-Mar-28 19:31S 29°52' E 031°01'0 0.0
2015-Mar-28 18:15S 29°52' E 031°01'0 0.0
2015-Mar-28 17:28S 29°52' E 031°01'0 0.5
2015-Mar-28 16:33S 29°52' E 031°01'8 8.1
2015-Mar-28 15:33S 29°56' E 031°10'6 6.1
2015-Mar-28 14:33S 29°59' E 031°15'3 2.8
2015-Mar-28 13:34S 29°57' E 031°14'3 3.4
2015-Mar-28 12:33S 29°54' E 031°13'4 3.5
2015-Mar-28 11:34S 29°51' E 031°10'1 0.9
2015-Mar-28 10:33S 29°51' E 031°09'4 4.4
2015-Mar-28 09:33S 29°52' E 031°04'2 1.6
2015-Mar-28 08:07S 29°52' E 031°01'0 0.0
2015-Mar-28 07:24S 29°52' E 031°01'0 0.0
2015-Mar-27 12:16S 29°52' E 031°01'0 0.0
2015-Mar-27 11:32S 29°52' E 031°01'0 0.0
2015-Mar-27 10:04S 29°52' E 031°01'2 4.6
2015-Mar-27 09:33S 29°52' E 031°04'4 4.2
2015-Mar-27 08:34S 29°55' E 031°07'2 2.0
2015-Mar-27 07:34S 29°53' E 031°06'5 5.1
2015-Mar-27 06:34S 29°54' E 031°00'0 0.0
2015-Mar-27 05:31S 29°54' E 031°00'0 0.0
2015-Mar-25 18:33S 29°54' E 031°00'2 0.2
2015-Mar-25 11:22S 29°52' E 031°01'2 2.5
2015-Mar-25 10:33S 29°54' E 031°00'0 0.0
2015-Mar-25 09:33S 29°54' E 031°00'0 0.0
2015-Mar-25 08:33S 29°54' E 031°00'0 0.0
2015-Mar-25 07:32S 29°54' E 031°00'0 0.0
2015-Mar-25 06:33S 29°54' E 031°00'0 0.0
2015-Mar-25 04:34S 29°54' E 031°00'0 0.0
2015-Mar-24 13:33S 29°54' E 031°00'7 7.3
2015-Mar-24 12:34S 29°49' E 031°07'3 3.2
2015-Mar-24 11:34S 29°47' E 031°10'0 0.1
2015-Mar-24 10:34S 29°47' E 031°10'0 0.1
2015-Mar-24 09:34S 29°47' E 031°10'7 7.5
2015-Mar-24 08:33S 29°52' E 031°03'3 3.1
2015-Mar-24 07:34S 29°54' E 031°00'0 0.0
2015-Mar-24 06:34S 29°54' E 031°00'0 0.0
2015-Mar-24 05:31S 29°54' E 031°00'0 0.0
2015-Mar-24 04:32S 29°54' E 031°00'0 0.0
2015-Mar-23 10:23S 29°54' E 031°00'4 4.9
2015-Mar-23 09:34S 29°52' E 031°04'4 1.2
2015-Mar-23 06:17S 29°54' E 031°00'0 0.0
2015-Mar-23 05:33S 29°54' E 031°00'2 0.1
2015-Mar-22 07:34S 29°52' E 031°02'7 7.2
2015-Mar-22 06:34S 29°52' E 031°10'0 0.2
2015-Mar-22 05:34S 29°52' E 031°10'5 5.2
2015-Mar-22 04:34S 29°52' E 031°04'4 4.0
2015-Mar-22 03:34S 29°54' E 031°00'0 0.0
2015-Mar-22 02:34S 29°54' E 031°00'0 0.0
2015-Mar-22 01:33S 29°54' E 031°00'0 0.0
2015-Mar-21 23:16S 29°54' E 031°00'0 0.0
2015-Mar-21 21:34S 29°54' E 031°00'0 0.0
2015-Mar-21 20:34S 29°54' E 031°00'0 0.0
2015-Mar-21 19:34S 29°54' E 031°00'0 0.0
2015-Mar-21 18:34S 29°54' E 031°00'0 0.0
2015-Mar-21 17:28S 29°54' E 031°00'0 0.0
2015-Mar-21 16:33S 29°54' E 031°00'0 0.0
2015-Mar-21 15:33S 29°54' E 031°00'0 0.0
2015-Mar-21 14:33S 29°54' E 031°00'0 0.0
2015-Mar-21 12:06S 29°54' E 031°00'0 0.0
2015-Mar-21 11:34S 29°54' E 031°00'0 0.0
2015-Mar-21 10:33S 29°54' E 031°00'0 0.0
2015-Mar-21 09:34S 29°54' E 031°00'0 0.0
2015-Mar-21 08:34S 29°54' E 031°00'0 0.0
2015-Mar-21 07:33S 29°54' E 031°00'0 0.0
2015-Mar-21 06:33S 29°54' E 031°00'0 0.0
2015-Mar-21 05:32S 29°54' E 031°00'  

Dump ship's entire track history